createdAt,value
2019-04-14T00:01:32.709Z,7.90
2019-04-14T00:04:12.277Z,7.80
2019-04-14T00:06:41.973Z,7.80
2019-04-14T00:09:16.376Z,7.80
2019-04-14T00:11:46.150Z,7.80
2019-04-14T00:14:16.261Z,7.90
2019-04-14T00:16:45.269Z,7.90
2019-04-14T00:19:15.152Z,7.90
2019-04-14T00:21:45.366Z,7.90
2019-04-14T00:24:14.400Z,7.90
2019-04-14T00:26:44.501Z,7.90
2019-04-14T00:29:13.459Z,7.90
2019-04-14T00:31:43.265Z,8.00
2019-04-14T00:34:13.843Z,7.90
2019-04-14T00:37:01.178Z,7.90
2019-04-14T00:39:34.205Z,7.90
2019-04-14T00:42:23.427Z,7.90
2019-04-14T00:44:53.991Z,7.80
2019-04-14T00:47:24.652Z,7.80
2019-04-14T00:49:53.583Z,7.80
2019-04-14T00:52:23.373Z,7.80
2019-04-14T00:54:52.298Z,7.80
2019-04-14T00:57:22.366Z,7.80
2019-04-14T00:59:51.252Z,7.80
2019-04-14T01:02:21.083Z,7.80
2019-04-14T01:04:57.651Z,7.80
2019-04-14T01:07:24.143Z,7.80
2019-04-14T01:09:55.378Z,7.80
2019-04-14T01:12:27.764Z,7.70
2019-04-14T01:15:00.625Z,7.80
2019-04-14T01:17:30.813Z,7.70
2019-04-14T01:20:03.612Z,7.70
2019-04-14T01:22:33.503Z,7.70
2019-04-14T01:25:02.454Z,7.70
2019-04-14T01:27:31.988Z,7.70
2019-04-14T01:30:00.968Z,7.70
2019-04-14T01:32:30.500Z,7.60
2019-04-14T01:35:00.892Z,7.60
2019-04-14T01:37:31.085Z,7.60
2019-04-14T01:40:00.926Z,7.60
2019-04-14T01:42:31.952Z,7.60
2019-04-14T01:45:01.404Z,7.60
2019-04-14T01:47:31.323Z,7.50
2019-04-14T01:50:01.651Z,7.50
2019-04-14T01:52:43.778Z,7.50
2019-04-14T01:55:33.122Z,7.50
2019-04-14T01:58:03.676Z,7.50
2019-04-14T02:00:38.174Z,7.50
2019-04-14T02:03:08.345Z,7.50
2019-04-14T02:05:38.319Z,7.50
2019-04-14T02:08:07.439Z,7.50
2019-04-14T02:10:36.853Z,7.40
2019-04-14T02:13:07.076Z,7.40
2019-04-14T02:15:37.318Z,7.40
2019-04-14T02:18:07.676Z,7.30
2019-04-14T02:20:40.351Z,7.40
2019-04-14T02:23:10.355Z,7.30
2019-04-14T02:25:42.917Z,7.30
2019-04-14T02:28:11.758Z,7.30
2019-04-14T02:30:49.341Z,7.30
2019-04-14T02:33:38.963Z,7.30
2019-04-14T02:36:14.580Z,7.30
2019-04-14T02:38:47.357Z,7.30
2019-04-14T02:41:12.100Z,7.30
2019-04-14T02:44:00.143Z,7.30
2019-04-14T02:51:14.443Z,7.30
2019-04-14T02:53:42.043Z,7.20
2019-04-14T02:56:15.908Z,7.20
2019-04-14T02:58:45.984Z,7.10
2019-04-14T03:01:19.421Z,7.10
2019-04-14T03:03:41.052Z,7.10
2019-04-14T03:08:51.995Z,7.10
2019-04-14T03:11:11.660Z,7.10
2019-04-14T03:14:01.297Z,7.10
2019-04-14T03:16:15.219Z,7.10
2019-04-14T03:21:41.515Z,7.10
2019-04-14T03:24:13.012Z,7.10
2019-04-14T03:26:54.587Z,7.10
2019-04-14T03:29:45.076Z,7.00
2019-04-14T03:34:55.173Z,7.00
2019-04-14T03:39:38.847Z,7.00
2019-04-14T03:42:13.132Z,7.00
2019-04-14T03:44:41.413Z,7.00
2019-04-14T03:47:13.775Z,6.90
2019-04-14T03:52:31.677Z,6.90
2019-04-14T03:54:36.581Z,6.90
2019-04-14T03:56:55.818Z,6.90
2019-04-14T03:59:24.503Z,6.90
2019-04-14T04:01:54.280Z,6.90
2019-04-14T04:04:22.999Z,6.90
2019-04-14T04:06:51.586Z,6.90
2019-04-14T04:09:21.901Z,6.90
2019-04-14T04:11:50.483Z,6.90
2019-04-14T04:14:20.243Z,7.00
2019-04-14T04:16:53.353Z,7.00
2019-04-14T04:19:23.611Z,7.00
2019-04-14T04:21:53.817Z,6.90
2019-04-14T04:24:41.067Z,7.00
2019-04-14T04:27:11.288Z,7.00
2019-04-14T04:29:57.533Z,6.90
2019-04-14T04:32:44.802Z,7.00
2019-04-14T04:35:17.939Z,6.90
2019-04-14T04:37:52.022Z,6.90
2019-04-14T04:40:24.599Z,6.90
2019-04-14T04:42:52.697Z,7.00
2019-04-14T04:45:21.382Z,6.90
2019-04-14T04:47:51.213Z,6.90
2019-04-14T04:50:19.921Z,6.90
2019-04-14T04:52:49.446Z,6.90
2019-04-14T04:55:18.120Z,6.90
2019-04-14T04:57:46.708Z,6.90
2019-04-14T05:00:18.170Z,6.90
2019-04-14T05:02:46.788Z,6.90
2019-04-14T05:05:44.985Z,6.90
2019-04-14T05:08:13.595Z,6.90
2019-04-14T05:10:46.596Z,6.90
2019-04-14T05:13:16.148Z,7.00
2019-04-14T05:15:46.607Z,7.00
2019-04-14T05:18:17.830Z,7.00
2019-04-14T05:20:46.510Z,7.00
2019-04-14T05:23:17.059Z,6.90
2019-04-14T05:25:47.438Z,6.90
2019-04-14T05:28:16.194Z,6.90
2019-04-14T05:30:45.721Z,6.90
2019-04-14T05:33:14.418Z,6.90
2019-04-14T05:35:42.994Z,6.90
2019-04-14T05:38:12.583Z,6.90
2019-04-14T05:40:41.249Z,6.90
2019-04-14T05:43:09.892Z,6.90
2019-04-14T05:45:39.487Z,6.70
2019-04-14T05:48:08.167Z,6.60
2019-04-14T05:50:37.640Z,6.40
2019-04-14T05:53:06.537Z,6.10
2019-04-14T05:55:35.250Z,6.20
2019-04-14T05:58:04.057Z,6.30
2019-04-14T06:00:34.205Z,6.40
2019-04-14T06:03:03.815Z,6.50
2019-04-14T06:05:32.452Z,6.50
2019-04-14T06:08:00.989Z,6.60
2019-04-14T06:10:29.619Z,6.60
2019-04-14T06:12:58.337Z,6.60
2019-04-14T06:15:26.893Z,6.60
2019-04-14T06:17:55.499Z,6.60
2019-04-14T06:20:24.066Z,6.50
2019-04-14T06:22:52.673Z,6.50
2019-04-14T06:25:21.257Z,6.50
2019-04-14T06:27:49.835Z,6.60
2019-04-14T06:30:29.175Z,6.60
2019-04-14T06:32:59.392Z,6.70
2019-04-14T06:35:32.730Z,6.80
2019-04-14T06:38:05.662Z,6.80
2019-04-14T06:40:34.884Z,6.80
2019-04-14T06:43:03.534Z,6.80
2019-04-14T06:45:32.131Z,6.80
2019-04-14T06:48:02.240Z,6.80
2019-04-14T06:50:30.862Z,6.80
2019-04-14T06:52:59.547Z,6.80
2019-04-14T06:55:28.125Z,6.80
2019-04-14T06:57:56.686Z,6.80
2019-04-14T07:00:25.488Z,6.80
2019-04-14T07:02:54.081Z,6.80
2019-04-14T07:05:22.741Z,6.80
2019-04-14T07:07:57.212Z,6.90
2019-04-14T07:10:23.726Z,6.90
2019-04-14T07:12:52.313Z,6.90
2019-04-14T07:15:20.875Z,7.00
2019-04-14T07:17:49.482Z,7.00
2019-04-14T07:20:18.042Z,7.00
2019-04-14T07:22:46.600Z,7.00
2019-04-14T07:25:15.206Z,7.10
2019-04-14T07:27:43.772Z,7.00
2019-04-14T07:30:16.853Z,6.90
2019-04-14T07:32:47.073Z,7.00
2019-04-14T07:35:26.196Z,7.00
2019-04-14T07:38:04.999Z,7.10
2019-04-14T07:40:44.482Z,7.10
2019-04-14T07:43:17.481Z,7.10
2019-04-14T07:45:50.339Z,7.10
2019-04-14T07:48:20.565Z,7.20
2019-04-14T07:50:53.800Z,7.30
2019-04-14T07:53:29.709Z,7.20
2019-04-14T07:56:15.897Z,7.20
2019-04-14T07:59:02.512Z,7.30
2019-04-14T08:01:34.265Z,7.30
2019-04-14T08:04:07.096Z,7.30
2019-04-14T08:06:38.296Z,7.40
2019-04-14T08:09:06.994Z,7.50
2019-04-14T08:11:35.640Z,7.50
2019-04-14T08:14:04.449Z,7.50
2019-04-14T08:16:34.688Z,7.50
2019-04-14T08:19:03.323Z,7.50
2019-04-14T08:21:37.961Z,7.50
2019-04-14T08:24:06.634Z,7.60
2019-04-14T08:26:36.731Z,7.60
2019-04-14T08:29:05.510Z,7.60
2019-04-14T08:31:34.074Z,7.70
2019-04-14T08:34:02.718Z,7.70
2019-04-14T08:36:34.277Z,7.70
2019-04-14T08:39:03.479Z,7.80
2019-04-14T08:41:33.710Z,7.80
2019-04-14T08:44:13.087Z,7.80
2019-04-14T08:46:52.084Z,7.80
2019-04-14T08:49:22.319Z,7.80
2019-04-14T08:52:01.376Z,7.80
2019-04-14T08:54:43.380Z,7.90
2019-04-14T08:57:19.750Z,7.90
2019-04-14T08:59:50.018Z,7.90
2019-04-14T09:02:23.007Z,7.90
2019-04-14T09:05:02.117Z,8.00
2019-04-14T09:07:48.636Z,8.00
2019-04-14T09:10:20.416Z,8.00
2019-04-14T09:12:51.302Z,8.00
2019-04-14T09:15:20.404Z,8.00
2019-04-14T09:17:51.957Z,8.10
2019-04-14T09:20:20.746Z,8.10
2019-04-14T09:22:49.628Z,8.20
2019-04-14T09:25:18.500Z,8.20
2019-04-14T09:27:47.298Z,8.20
2019-04-14T09:30:18.129Z,8.20
2019-04-14T09:32:47.008Z,8.20
2019-04-14T09:35:15.824Z,8.20
2019-04-14T09:37:44.747Z,8.20
2019-04-14T09:40:14.292Z,8.20
2019-04-14T09:42:42.932Z,8.30
2019-04-14T09:45:11.626Z,8.30
2019-04-14T09:47:40.208Z,8.30
2019-04-14T09:50:08.933Z,8.30
2019-04-14T09:52:39.131Z,8.30
2019-04-14T09:55:07.990Z,8.20
2019-04-14T09:57:36.810Z,8.20
2019-04-14T10:00:06.970Z,8.20
2019-04-14T10:02:35.559Z,8.20
2019-04-14T10:05:05.861Z,8.10
2019-04-14T10:07:34.463Z,8.10
2019-04-14T10:10:04.470Z,8.10
2019-04-14T10:12:33.112Z,8.00
2019-04-14T10:15:01.680Z,8.00
2019-04-14T10:17:30.242Z,8.00
2019-04-14T10:19:58.879Z,8.00
2019-04-14T10:22:33.873Z,8.10
2019-04-14T10:24:57.629Z,8.10
2019-04-14T10:27:32.854Z,8.00
2019-04-14T10:30:06.865Z,8.00
2019-04-14T10:32:35.745Z,8.00
2019-04-14T10:35:05.446Z,8.10
2019-04-14T10:37:34.214Z,8.20
2019-04-14T10:40:05.968Z,8.20
2019-04-14T10:42:33.582Z,8.30
2019-04-14T10:45:02.273Z,8.40
2019-04-14T10:47:30.832Z,8.40
2019-04-14T10:50:03.696Z,8.10
2019-04-14T10:52:34.992Z,8.10
2019-04-14T10:55:04.549Z,8.10
2019-04-14T10:57:39.857Z,8.20
2019-04-14T11:00:10.997Z,8.40
2019-04-14T11:02:40.838Z,8.50
2019-04-14T11:05:12.478Z,8.60
2019-04-14T11:07:41.103Z,8.50
2019-04-14T11:10:10.219Z,8.50
2019-04-14T11:12:38.869Z,8.50
2019-04-14T11:15:09.550Z,8.50
2019-04-14T11:17:38.120Z,8.40
2019-04-14T11:20:09.610Z,8.50
2019-04-14T11:22:38.239Z,8.50
2019-04-14T11:25:07.081Z,8.60
2019-04-14T11:27:38.686Z,8.80
2019-04-14T11:30:09.322Z,8.80
2019-04-14T11:32:55.964Z,8.70
2019-04-14T11:35:32.221Z,8.70
2019-04-14T11:38:02.396Z,8.70
2019-04-14T11:40:34.665Z,8.70
2019-04-14T11:43:07.850Z,8.70
2019-04-14T11:45:36.448Z,8.80
2019-04-14T11:48:05.120Z,8.70
2019-04-14T11:50:33.705Z,8.70
2019-04-14T11:53:02.321Z,8.60
2019-04-14T11:55:31.043Z,8.60
2019-04-14T11:58:11.927Z,8.60
2019-04-14T12:00:58.317Z,8.70
2019-04-14T12:03:46.094Z,8.70
2019-04-14T12:06:19.185Z,8.70
2019-04-14T12:08:52.595Z,8.70
2019-04-14T12:11:27.230Z,8.80
2019-04-14T12:13:55.884Z,8.90
2019-04-14T12:16:27.179Z,8.80
2019-04-14T12:18:55.820Z,8.60
2019-04-14T12:21:24.400Z,8.60
2019-04-14T12:23:53.019Z,8.70
2019-04-14T12:26:21.586Z,8.80
2019-04-14T12:28:51.477Z,8.70
2019-04-14T12:31:21.758Z,8.70
2019-04-14T12:33:50.410Z,8.80
2019-04-14T12:36:19.060Z,8.80
2019-04-14T12:38:48.073Z,8.70
2019-04-14T12:41:24.173Z,8.60
2019-04-14T12:44:14.729Z,8.70
2019-04-14T12:46:44.950Z,8.70
2019-04-14T12:49:17.858Z,8.60
2019-04-14T12:51:53.820Z,8.60
2019-04-14T12:54:22.421Z,8.60
2019-04-14T12:56:51.050Z,8.60
2019-04-14T12:59:23.686Z,8.80
2019-04-14T13:01:56.991Z,8.70
2019-04-14T13:04:25.567Z,8.70
2019-04-14T13:06:54.167Z,8.80
2019-04-14T13:09:22.733Z,8.90
2019-04-14T13:11:51.400Z,9.00
2019-04-14T13:14:20.040Z,9.10
2019-04-14T13:16:48.595Z,9.00
2019-04-14T13:19:20.243Z,8.80
2019-04-14T13:21:54.921Z,8.90
2019-04-14T13:24:27.679Z,8.90
2019-04-14T13:26:56.466Z,8.80
2019-04-14T13:29:25.482Z,8.80
2019-04-14T13:31:54.132Z,8.80
2019-04-14T13:34:22.909Z,8.90
2019-04-14T13:37:03.281Z,8.80
2019-04-14T13:39:34.095Z,8.70
2019-04-14T13:42:05.618Z,8.70
2019-04-14T13:44:34.175Z,8.70
2019-04-14T13:47:02.822Z,8.80
2019-04-14T13:49:31.492Z,8.80
2019-04-14T13:52:00.046Z,8.70
2019-04-14T13:54:32.624Z,8.80
2019-04-14T13:57:01.192Z,8.80
2019-04-14T13:59:32.464Z,8.90
2019-04-14T14:02:01.066Z,8.90
2019-04-14T14:04:29.610Z,8.90
2019-04-14T14:06:58.218Z,9.00
2019-04-14T14:09:29.484Z,8.90
2019-04-14T14:12:05.134Z,8.90
2019-04-14T14:14:41.561Z,8.90
2019-04-14T14:17:28.093Z,8.90
2019-04-14T14:20:04.374Z,8.90
2019-04-14T14:22:45.313Z,8.90
2019-04-14T14:25:22.782Z,8.90
2019-04-14T14:27:51.747Z,9.00
2019-04-14T14:30:21.220Z,9.00
2019-04-14T14:32:52.818Z,9.00
2019-04-14T14:35:21.393Z,9.00
2019-04-14T14:37:49.984Z,8.90
2019-04-14T14:40:21.398Z,9.00
2019-04-14T14:42:49.955Z,9.20
2019-04-14T14:45:20.310Z,9.30
2019-04-14T14:48:06.949Z,9.20
2019-04-14T14:50:38.121Z,9.10
2019-04-14T14:53:12.318Z,9.00
2019-04-14T14:55:37.374Z,8.90
2019-04-14T14:58:06.043Z,8.90
2019-04-14T15:00:35.121Z,8.80
2019-04-14T15:03:07.928Z,8.80
2019-04-14T15:05:36.498Z,8.70
2019-04-14T15:08:05.114Z,8.80
2019-04-14T15:10:33.711Z,8.80
2019-04-14T15:13:02.404Z,8.90
2019-04-14T15:15:31.022Z,8.90
2019-04-14T15:17:59.593Z,8.90
2019-04-14T15:20:28.238Z,8.90
2019-04-14T15:22:56.920Z,8.90
2019-04-14T15:25:25.659Z,8.80
2019-04-14T15:27:54.237Z,8.80
2019-04-14T15:30:29.297Z,8.70
2019-04-14T15:32:57.934Z,8.70
2019-04-14T15:35:26.528Z,8.80
2019-04-14T15:37:55.414Z,8.80
2019-04-14T15:40:23.966Z,8.80
2019-04-14T15:42:53.566Z,8.70
2019-04-14T15:45:22.335Z,8.60
2019-04-14T15:47:50.938Z,8.60
2019-04-14T15:50:19.489Z,8.60
2019-04-14T15:52:48.344Z,8.70
2019-04-14T15:55:18.193Z,8.60
2019-04-14T15:57:51.246Z,8.60
2019-04-14T16:00:36.301Z,8.50
2019-04-14T16:03:09.220Z,8.50
2019-04-14T16:05:39.419Z,8.60
2019-04-14T16:08:09.632Z,8.70
2019-04-14T16:10:42.567Z,8.70
2019-04-14T16:13:12.829Z,8.80
2019-04-14T16:15:59.341Z,8.80
2019-04-14T16:18:45.601Z,8.90
2019-04-14T16:21:14.435Z,9.00
2019-04-14T16:23:50.334Z,9.20
2019-04-14T16:26:26.813Z,9.40
2019-04-14T16:29:02.513Z,9.60
2019-04-14T16:31:31.866Z,9.60
2019-04-14T16:34:02.074Z,9.70
2019-04-14T16:36:35.246Z,9.80
2019-04-14T16:39:05.924Z,9.90
2019-04-14T16:41:34.530Z,9.90
2019-04-14T16:44:03.728Z,9.90
2019-04-14T16:46:32.356Z,9.90
2019-04-14T16:49:01.799Z,9.90
2019-04-14T16:51:48.047Z,9.90
2019-04-14T16:54:18.263Z,9.90
2019-04-14T16:57:05.910Z,9.80
2019-04-14T16:59:35.022Z,9.60
2019-04-14T17:02:10.782Z,9.50
2019-04-14T17:04:33.874Z,9.60
2019-04-14T17:07:02.474Z,9.50
2019-04-14T17:09:31.039Z,9.40
2019-04-14T17:12:04.158Z,9.50
2019-04-14T17:14:39.992Z,9.50
2019-04-14T17:17:12.838Z,9.50
2019-04-14T17:19:43.089Z,9.50
2019-04-14T17:22:22.346Z,9.40
2019-04-14T17:25:04.356Z,9.40
2019-04-14T17:27:34.632Z,9.30
2019-04-14T17:30:31.434Z,9.30
2019-04-14T17:33:05.680Z,9.30
2019-04-14T17:35:41.576Z,9.20
2019-04-14T17:38:14.752Z,9.10
2019-04-14T17:41:02.962Z,9.10
2019-04-14T17:43:33.156Z,9.10
2019-04-14T17:46:12.300Z,8.90
2019-04-14T17:49:00.358Z,8.90
2019-04-14T17:51:33.480Z,8.80
2019-04-14T17:54:28.381Z,8.70
2019-04-14T17:56:50.694Z,8.70
2019-04-14T17:59:23.306Z,8.70
2019-04-14T18:02:05.332Z,8.70
2019-04-14T18:04:41.293Z,8.70
2019-04-14T18:07:16.167Z,8.70
2019-04-14T18:10:02.497Z,8.70
2019-04-14T18:12:35.945Z,8.70
2019-04-14T18:15:11.445Z,8.70
2019-04-14T18:17:40.487Z,8.70
2019-04-14T18:20:10.912Z,8.70
2019-04-14T18:22:39.525Z,8.70
2019-04-14T18:25:08.792Z,8.70
2019-04-14T18:27:55.330Z,8.70
2019-04-14T18:30:25.558Z,8.70
2019-04-14T18:32:58.503Z,8.60
2019-04-14T18:35:28.752Z,8.60
2019-04-14T18:38:15.176Z,8.60
2019-04-14T18:40:48.067Z,8.50
2019-04-14T18:43:22.085Z,8.60
2019-04-14T18:45:58.700Z,8.50
2019-04-14T18:48:31.766Z,8.40
2019-04-14T18:51:21.628Z,8.40
2019-04-14T18:53:58.399Z,8.40
2019-04-14T18:56:40.427Z,8.30
2019-04-14T18:59:29.559Z,8.30
2019-04-14T19:01:58.473Z,8.40
2019-04-14T19:04:27.046Z,8.40
2019-04-14T19:06:55.599Z,8.30
2019-04-14T19:09:24.252Z,8.30
2019-04-14T19:12:12.751Z,8.20
2019-04-14T19:14:42.097Z,8.20
2019-04-14T19:17:12.296Z,8.20
2019-04-14T19:19:42.954Z,8.20
2019-04-14T19:22:11.549Z,8.20
2019-04-14T19:24:40.100Z,8.30
2019-04-14T19:27:09.066Z,8.30
2019-04-14T19:29:37.751Z,8.20
2019-04-14T19:32:28.661Z,8.20
2019-04-14T19:34:57.250Z,8.00
2019-04-14T19:37:28.709Z,7.90
2019-04-14T19:39:57.380Z,7.80
2019-04-14T19:42:28.157Z,7.80
2019-04-14T19:47:31.930Z,7.90
2019-04-14T19:50:00.495Z,7.80
2019-04-14T19:52:29.130Z,7.70
2019-04-14T19:54:57.766Z,7.80
2019-04-14T19:57:32.426Z,7.80
2019-04-14T20:00:01.100Z,7.90
2019-04-14T20:02:30.385Z,8.00
2019-04-14T20:04:59.260Z,8.10
2019-04-14T20:07:27.816Z,8.00
2019-04-14T20:09:56.379Z,8.00
2019-04-14T20:12:24.978Z,7.80
2019-04-14T20:14:54.840Z,7.70
2019-04-14T20:17:24.980Z,7.70
2019-04-14T20:19:55.208Z,7.80
2019-04-14T20:22:31.631Z,7.90
2019-04-14T20:25:01.865Z,7.90
2019-04-14T20:27:34.932Z,8.00
2019-04-14T20:30:14.522Z,8.10
2019-04-14T20:32:44.860Z,8.20
2019-04-14T20:35:13.551Z,8.20
2019-04-14T20:37:42.161Z,8.10
2019-04-14T20:40:10.877Z,7.90
2019-04-14T20:42:39.603Z,7.90
2019-04-14T20:45:10.259Z,7.90
2019-04-14T20:47:40.451Z,7.90
2019-04-14T20:50:13.305Z,7.80
2019-04-14T20:52:42.439Z,7.80
2019-04-14T20:55:11.453Z,7.60
2019-04-14T20:57:40.069Z,7.60
2019-04-14T21:00:12.256Z,7.70
2019-04-14T21:02:58.608Z,7.70
2019-04-14T21:05:28.873Z,7.60
2019-04-14T21:08:18.224Z,7.60
2019-04-14T21:11:03.513Z,7.50
2019-04-14T21:13:46.441Z,7.40
2019-04-14T21:16:34.191Z,7.50
2019-04-14T21:19:17.198Z,7.70
2019-04-14T21:21:49.124Z,7.80
2019-04-14T21:24:24.801Z,7.80
2019-04-14T21:26:55.026Z,7.90
2019-04-14T21:29:25.235Z,7.90
2019-04-14T21:32:01.718Z,7.90
2019-04-14T21:34:32.064Z,7.90
2019-04-14T21:37:04.998Z,7.70
2019-04-14T21:39:44.010Z,7.80
2019-04-14T21:42:13.794Z,7.80
2019-04-14T21:44:42.487Z,7.80
2019-04-14T21:47:13.777Z,7.90
2019-04-14T21:49:42.448Z,7.90
2019-04-14T21:52:14.186Z,7.90
2019-04-14T21:54:44.720Z,7.90
2019-04-14T21:57:14.956Z,7.90
2019-04-14T21:59:45.160Z,8.00
2019-04-14T22:02:18.232Z,8.00
2019-04-14T22:04:53.954Z,8.00
2019-04-14T22:07:26.748Z,7.80
2019-04-14T22:09:57.706Z,7.40
2019-04-14T22:12:26.390Z,7.30
2019-04-14T22:14:55.034Z,7.30
2019-04-14T22:17:23.611Z,7.40
2019-04-14T22:19:52.189Z,7.30
2019-04-14T22:22:20.738Z,7.20
2019-04-14T22:24:49.393Z,7.20
2019-04-14T22:27:18.238Z,7.10
2019-04-14T22:29:47.299Z,7.10
2019-04-14T22:32:15.888Z,7.30
2019-04-14T22:34:44.447Z,7.20
2019-04-14T22:37:14.609Z,7.20
2019-04-14T22:39:44.737Z,7.20
2019-04-14T22:42:13.362Z,7.30
2019-04-14T22:44:41.956Z,7.40
2019-04-14T22:47:10.517Z,7.50
2019-04-14T22:49:39.177Z,7.50
2019-04-14T22:52:07.813Z,7.50
2019-04-14T22:54:36.401Z,7.60
2019-04-14T22:57:05.393Z,7.40
2019-04-14T22:59:33.947Z,7.30
2019-04-14T23:02:16.338Z,7.30
2019-04-14T23:05:02.521Z,7.40
2019-04-14T23:07:34.360Z,7.30
2019-04-14T23:10:19.771Z,7.30
2019-04-14T23:12:58.464Z,7.30
2019-04-14T23:15:28.689Z,7.10
2019-04-14T23:17:58.903Z,6.90
2019-04-14T23:20:38.019Z,6.90
2019-04-14T23:23:10.969Z,7.10
2019-04-14T23:25:39.624Z,7.30
2019-04-14T23:28:08.252Z,7.40
2019-04-14T23:30:37.692Z,7.50
2019-04-14T23:33:06.407Z,7.40
2019-04-14T23:35:35.037Z,7.50
2019-04-14T23:38:06.113Z,7.60
2019-04-14T23:40:34.741Z,7.40
2019-04-14T23:43:07.912Z,7.30
2019-04-14T23:45:39.548Z,7.30
2019-04-14T23:48:08.212Z,7.40
2019-04-14T23:50:37.116Z,7.40
2019-04-14T23:53:05.753Z,7.40
2019-04-14T23:55:34.413Z,7.30
2019-04-14T23:58:03.036Z,7.20
